sensor_id;sensor_type;location;lat;lon;timestamp;pressure;altitude;pressure_sealevel;temperature;humidity
68871;BME280;55906;52.278;6.808;2023-02-28T00:00:51;103027.88;;;3.97;63.80
68871;BME280;55906;52.278;6.808;2023-02-28T00:03:19;103034.78;;;3.97;64.11
68871;BME280;55906;52.278;6.808;2023-02-28T00:05:45;103031.91;;;3.94;64.51
68871;BME280;55906;52.278;6.808;2023-02-28T00:08:12;103027.47;;;3.93;64.62
68871;BME280;55906;52.278;6.808;2023-02-28T00:10:38;103032.94;;;3.96;64.07
68871;BME280;55906;52.278;6.808;2023-02-28T00:13:06;103026.06;;;3.96;64.82
68871;BME280;55906;52.278;6.808;2023-02-28T00:15:33;103037.38;;;3.97;64.61
68871;BME280;55906;52.278;6.808;2023-02-28T00:18:00;103023.59;;;3.98;64.24
68871;BME280;55906;52.278;6.808;2023-02-28T00:20:28;103030.63;;;3.99;64.69
68871;BME280;55906;52.278;6.808;2023-02-28T00:22:55;103031.66;;;4.01;64.19
68871;BME280;55906;52.278;6.808;2023-02-28T00:25:24;103031.00;;;4.03;64.32
68871;BME280;55906;52.278;6.808;2023-02-28T00:27:51;103032.72;;;4.03;64.33
68871;BME280;55906;52.278;6.808;2023-02-28T00:30:19;103025.66;;;4.02;64.74
68871;BME280;55906;52.278;6.808;2023-02-28T00:32:47;103020.47;;;4.02;64.76
68871;BME280;55906;52.278;6.808;2023-02-28T00:35:14;103025.94;;;4.05;64.78
68871;BME280;55906;52.278;6.808;2023-02-28T00:37:42;103021.00;;;4.08;64.97
68871;BME280;55906;52.278;6.808;2023-02-28T00:40:10;103033.25;;;4.09;65.01
68871;BME280;55906;52.278;6.808;2023-02-28T00:42:37;103028.03;;;4.09;64.38
68871;BME280;55906;52.278;6.808;2023-02-28T00:45:05;103027.38;;;4.11;63.88
68871;BME280;55906;52.278;6.808;2023-02-28T00:47:33;103032.47;;;4.10;64.59
68871;BME280;55906;52.278;6.808;2023-02-28T00:50:00;103026.97;;;4.07;64.59
68871;BME280;55906;52.278;6.808;2023-02-28T00:52:27;103029.59;;;4.07;64.86
68871;BME280;55906;52.278;6.808;2023-02-28T00:54:55;103022.81;;;4.09;64.75
68871;BME280;55906;52.278;6.808;2023-02-28T00:57:21;103017.75;;;4.10;64.30
68871;BME280;55906;52.278;6.808;2023-02-28T00:59:48;103018.38;;;4.08;65.35
68871;BME280;55906;52.278;6.808;2023-02-28T01:02:15;103023.72;;;4.09;64.69
68871;BME280;55906;52.278;6.808;2023-02-28T01:04:43;103020.22;;;4.09;64.98
68871;BME280;55906;52.278;6.808;2023-02-28T01:07:09;103018.25;;;4.06;65.04
68871;BME280;55906;52.278;6.808;2023-02-28T01:09:36;103022.81;;;4.09;64.54
68871;BME280;55906;52.278;6.808;2023-02-28T01:12:05;103019.97;;;4.16;65.18
68871;BME280;55906;52.278;6.808;2023-02-28T01:14:32;103006.28;;;4.18;64.49
68871;BME280;55906;52.278;6.808;2023-02-28T01:17:00;103013.59;;;4.23;64.98
68871;BME280;55906;52.278;6.808;2023-02-28T01:19:27;103025.69;;;4.22;64.86
68871;BME280;55906;52.278;6.808;2023-02-28T01:21:53;103024.91;;;4.23;64.78
68871;BME280;55906;52.278;6.808;2023-02-28T01:24:20;103024.28;;;4.26;64.59
68871;BME280;55906;52.278;6.808;2023-02-28T01:26:46;103021.78;;;4.27;64.53
68871;BME280;55906;52.278;6.808;2023-02-28T01:29:14;103017.63;;;4.29;65.00
68871;BME280;55906;52.278;6.808;2023-02-28T01:31:41;103024.66;;;4.30;64.62
68871;BME280;55906;52.278;6.808;2023-02-28T01:34:08;103023.09;;;4.32;64.85
68871;BME280;55906;52.278;6.808;2023-02-28T01:36:34;103019.72;;;4.33;64.51
68871;BME280;55906;52.278;6.808;2023-02-28T01:39:01;103012.69;;;4.32;64.83
68871;BME280;55906;52.278;6.808;2023-02-28T01:41:30;103011.78;;;4.32;64.54
68871;BME280;55906;52.278;6.808;2023-02-28T01:44:00;103009.94;;;4.31;64.93
68871;BME280;55906;52.278;6.808;2023-02-28T01:46:31;103015.41;;;4.34;64.75
68871;BME280;55906;52.278;6.808;2023-02-28T01:49:02;103017.13;;;4.33;64.50
68871;BME280;55906;52.278;6.808;2023-02-28T01:51:35;103016.06;;;4.31;64.92
68871;BME280;55906;52.278;6.808;2023-02-28T01:54:06;103007.47;;;4.32;64.52
68871;BME280;55906;52.278;6.808;2023-02-28T01:56:41;103006.44;;;4.30;64.66
68871;BME280;55906;52.278;6.808;2023-02-28T01:59:09;103016.84;;;4.30;64.73
68871;BME280;55906;52.278;6.808;2023-02-28T02:01:37;103024.66;;;4.30;64.65
68871;BME280;55906;52.278;6.808;2023-02-28T02:04:04;103012.81;;;4.24;64.92
68871;BME280;55906;52.278;6.808;2023-02-28T02:06:35;103002.13;;;4.21;64.81
68871;BME280;55906;52.278;6.808;2023-02-28T02:09:03;103013.06;;;4.16;65.22
68871;BME280;55906;52.278;6.808;2023-02-28T02:11:32;103016.31;;;4.14;65.55
68871;BME280;55906;52.278;6.808;2023-02-28T02:17:10;103005.63;;;4.11;65.80
68871;BME280;55906;52.278;6.808;2023-02-28T02:20:16;103013.84;;;4.15;66.63
68871;BME280;55906;52.278;6.808;2023-02-28T02:23:21;103014.09;;;4.18;66.37
68871;BME280;55906;52.278;6.808;2023-02-28T02:25:56;103024.41;;;4.17;65.23
68871;BME280;55906;52.278;6.808;2023-02-28T02:28:45;103017.09;;;4.13;65.65
68871;BME280;55906;52.278;6.808;2023-02-28T02:31:32;103010.84;;;4.11;66.03
68871;BME280;55906;52.278;6.808;2023-02-28T02:34:22;103015.41;;;4.13;65.70
68871;BME280;55906;52.278;6.808;2023-02-28T02:36:55;103012.41;;;4.09;65.48
68871;BME280;55906;52.278;6.808;2023-02-28T02:39:29;103020.22;;;4.09;66.17
68871;BME280;55906;52.278;6.808;2023-02-28T02:42:00;103017.09;;;4.03;65.99
68871;BME280;55906;52.278;6.808;2023-02-28T02:44:31;103006.53;;;4.01;66.41
68871;BME280;55906;52.278;6.808;2023-02-28T02:47:08;102997.28;;;4.05;66.28
68871;BME280;55906;52.278;6.808;2023-02-28T02:49:38;103006.03;;;4.05;65.73
68871;BME280;55906;52.278;6.808;2023-02-28T02:52:09;103008.75;;;3.97;66.94
68871;BME280;55906;52.278;6.808;2023-02-28T02:54:40;103013.25;;;3.89;66.99
68871;BME280;55906;52.278;6.808;2023-02-28T02:57:11;103010.25;;;3.84;66.65
68871;BME280;55906;52.278;6.808;2023-02-28T02:59:41;103002.31;;;3.83;66.27
68871;BME280;55906;52.278;6.808;2023-02-28T03:02:11;103007.78;;;3.86;66.31
68871;BME280;55906;52.278;6.808;2023-02-28T03:04:45;103002.56;;;3.86;66.88
68871;BME280;55906;52.278;6.808;2023-02-28T03:07:12;103005.44;;;3.89;66.62
68871;BME280;55906;52.278;6.808;2023-02-28T03:09:39;103007.13;;;3.89;66.82
68871;BME280;55906;52.278;6.808;2023-02-28T03:12:09;103005.31;;;3.88;67.19
68871;BME280;55906;52.278;6.808;2023-02-28T03:14:46;103007.63;;;3.84;67.57
68871;BME280;55906;52.278;6.808;2023-02-28T03:17:24;103007.78;;;3.86;67.69
68871;BME280;55906;52.278;6.808;2023-02-28T03:20:02;103013.88;;;3.86;66.97
68871;BME280;55906;52.278;6.808;2023-02-28T03:22:49;102997.34;;;3.86;67.84
68871;BME280;55906;52.278;6.808;2023-02-28T03:25:21;102999.19;;;3.87;67.07
68871;BME280;55906;52.278;6.808;2023-02-28T03:27:59;102988.13;;;3.90;67.17
68871;BME280;55906;52.278;6.808;2023-02-28T03:30:31;102988.13;;;3.90;66.82
68871;BME280;55906;52.278;6.808;2023-02-28T03:33:05;102985.81;;;3.93;66.31
68871;BME280;55906;52.278;6.808;2023-02-28T03:35:38;102992.72;;;3.92;67.04
68871;BME280;55906;52.278;6.808;2023-02-28T03:38:10;102989.19;;;3.92;67.18
68871;BME280;55906;52.278;6.808;2023-02-28T03:40:42;102988.44;;;3.93;66.63
68871;BME280;55906;52.278;6.808;2023-02-28T03:43:12;102988.44;;;3.93;66.60
68871;BME280;55906;52.278;6.808;2023-02-28T03:45:41;102983.09;;;3.91;66.79
68871;BME280;55906;52.278;6.808;2023-02-28T03:48:12;102995.81;;;3.88;66.89
68871;BME280;55906;52.278;6.808;2023-02-28T03:50:43;102995.66;;;3.86;66.83
68871;BME280;55906;52.278;6.808;2023-02-28T03:53:13;102999.97;;;3.86;66.40
68871;BME280;55906;52.278;6.808;2023-02-28T03:55:43;103007.78;;;3.86;66.53
68871;BME280;55906;52.278;6.808;2023-02-28T03:58:15;103006.84;;;3.85;67.03
68871;BME280;55906;52.278;6.808;2023-02-28T04:00:48;103004.78;;;3.81;67.23
68871;BME280;55906;52.278;6.808;2023-02-28T04:03:15;102995.91;;;3.79;67.36
68871;BME280;55906;52.278;6.808;2023-02-28T04:05:50;102995.91;;;3.79;67.59
68871;BME280;55906;52.278;6.808;2023-02-28T04:08:17;102981.06;;;3.78;67.59
68871;BME280;55906;52.278;6.808;2023-02-28T04:10:48;102984.59;;;3.79;66.45
68871;BME280;55906;52.278;6.808;2023-02-28T04:13:16;102992.13;;;3.76;67.28
68871;BME280;55906;52.278;6.808;2023-02-28T04:15:43;102991.72;;;3.71;66.82
68871;BME280;55906;52.278;6.808;2023-02-28T04:18:10;102994.97;;;3.69;67.33
68871;BME280;55906;52.278;6.808;2023-02-28T04:20:36;102982.09;;;3.70;67.09
68871;BME280;55906;52.278;6.808;2023-02-28T04:23:05;102985.47;;;3.69;67.35
68871;BME280;55906;52.278;6.808;2023-02-28T04:25:32;102990.41;;;3.66;67.48
68871;BME280;55906;52.278;6.808;2023-02-28T04:27:58;102989.63;;;3.67;67.54
68871;BME280;55906;52.278;6.808;2023-02-28T04:30:25;102985.22;;;3.66;67.02
68871;BME280;55906;52.278;6.808;2023-02-28T04:32:52;103000.03;;;3.67;66.88
68871;BME280;55906;52.278;6.808;2023-02-28T04:35:18;102995.50;;;3.65;67.42
68871;BME280;55906;52.278;6.808;2023-02-28T04:37:45;102995.59;;;3.56;68.16
68871;BME280;55906;52.278;6.808;2023-02-28T04:40:13;103002.88;;;3.60;66.69
68871;BME280;55906;52.278;6.808;2023-02-28T04:42:40;102997.41;;;3.57;67.53
68871;BME280;55906;52.278;6.808;2023-02-28T04:45:08;103003.41;;;3.56;66.72
68871;BME280;55906;52.278;6.808;2023-02-28T04:47:35;103003.41;;;3.56;67.84
68871;BME280;55906;52.278;6.808;2023-02-28T04:50:02;102998.31;;;3.58;67.44
68871;BME280;55906;52.278;6.808;2023-02-28T04:52:29;103008.09;;;3.60;67.02
68871;BME280;55906;52.278;6.808;2023-02-28T04:54:55;102995.84;;;3.59;66.61
68871;BME280;55906;52.278;6.808;2023-02-28T04:57:23;103001.84;;;3.58;66.42
68871;BME280;55906;52.278;6.808;2023-02-28T04:59:50;102999.88;;;3.56;66.85
68871;BME280;55906;52.278;6.808;2023-02-28T05:02:16;102994.03;;;3.58;67.02
68871;BME280;55906;52.278;6.808;2023-02-28T05:04:43;103006.53;;;3.62;66.74
68871;BME280;55906;52.278;6.808;2023-02-28T05:07:09;103002.50;;;3.66;66.62
68871;BME280;55906;52.278;6.808;2023-02-28T05:09:36;103007.84;;;3.67;67.33
68871;BME280;55906;52.278;6.808;2023-02-28T05:12:03;103002.13;;;3.71;66.47
68871;BME280;55906;52.278;6.808;2023-02-28T05:14:31;103005.66;;;3.72;67.09
68871;BME280;55906;52.278;6.808;2023-02-28T05:16:57;102999.81;;;3.74;66.61
68871;BME280;55906;52.278;6.808;2023-02-28T05:19:24;103003.31;;;3.75;66.57
68871;BME280;55906;52.278;6.808;2023-02-28T05:21:53;103014.91;;;3.78;66.86
68871;BME280;55906;52.278;6.808;2023-02-28T05:24:20;103008.03;;;3.79;66.38
68871;BME280;55906;52.278;6.808;2023-02-28T05:26:48;103014.00;;;3.78;66.34
68871;BME280;55906;52.278;6.808;2023-02-28T05:29:16;103018.44;;;3.79;66.60
68871;BME280;55906;52.278;6.808;2023-02-28T05:31:44;103012.44;;;3.80;66.83
68871;BME280;55906;52.278;6.808;2023-02-28T05:34:10;103012.56;;;3.81;66.25
68871;BME280;55906;52.278;6.808;2023-02-28T05:36:38;103014.41;;;3.82;65.88
68871;BME280;55906;52.278;6.808;2023-02-28T05:39:05;103019.47;;;3.81;66.40
68871;BME280;55906;52.278;6.808;2023-02-28T05:41:32;103016.09;;;3.82;66.24
68871;BME280;55906;52.278;6.808;2023-02-28T05:43:59;103018.69;;;3.82;66.77
68871;BME280;55906;52.278;6.808;2023-02-28T05:46:26;103023.78;;;3.80;66.00
68871;BME280;55906;52.278;6.808;2023-02-28T05:48:54;103025.59;;;3.81;66.37
68871;BME280;55906;52.278;6.808;2023-02-28T05:51:23;103018.28;;;3.77;67.16
68871;BME280;55906;52.278;6.808;2023-02-28T05:53:49;103031.44;;;3.79;66.32
68871;BME280;55906;52.278;6.808;2023-02-28T05:56:16;103019.22;;;3.78;67.03
68871;BME280;55906;52.278;6.808;2023-02-28T05:58:42;103021.81;;;3.78;67.10
68871;BME280;55906;52.278;6.808;2023-02-28T06:01:32;103029.63;;;3.78;67.25
68871;BME280;55906;52.278;6.808;2023-02-28T06:04:00;103026.88;;;3.76;66.98
68871;BME280;55906;52.278;6.808;2023-02-28T06:06:27;103036.38;;;3.76;65.86
68871;BME280;55906;52.278;6.808;2023-02-28T06:08:54;103036.09;;;3.73;66.07
68871;BME280;55906;52.278;6.808;2023-02-28T06:11:21;103039.50;;;3.72;65.36
68871;BME280;55906;52.278;6.808;2023-02-28T06:13:53;103033.09;;;3.68;66.27
68871;BME280;55906;52.278;6.808;2023-02-28T06:16:20;103042.59;;;3.68;66.19
68871;BME280;55906;52.278;6.808;2023-02-28T06:18:46;103058.06;;;3.66;66.21
68871;BME280;55906;52.278;6.808;2023-02-28T06:21:14;103052.22;;;3.69;66.24
68871;BME280;55906;52.278;6.808;2023-02-28T06:23:41;103056.78;;;3.71;65.85
68871;BME280;55906;52.278;6.808;2023-02-28T06:26:08;103056.94;;;3.73;65.72
68871;BME280;55906;52.278;6.808;2023-02-28T06:28:34;103061.50;;;3.75;65.87
68871;BME280;55906;52.278;6.808;2023-02-28T06:31:07;103054.59;;;3.76;65.21
68871;BME280;55906;52.278;6.808;2023-02-28T06:33:34;103054.47;;;3.74;64.92
68871;BME280;55906;52.278;6.808;2023-02-28T06:36:00;103056.28;;;3.75;64.82
68871;BME280;55906;52.278;6.808;2023-02-28T06:38:29;103058.13;;;3.76;64.88
68871;BME280;55906;52.278;6.808;2023-02-28T06:40:56;103059.66;;;3.74;64.73
68871;BME280;55906;52.278;6.808;2023-02-28T06:43:23;103059.94;;;3.77;64.80
68871;BME280;55906;52.278;6.808;2023-02-28T06:45:50;103062.41;;;3.76;65.05
68871;BME280;55906;52.278;6.808;2023-02-28T06:48:17;103066.19;;;3.79;64.46
68871;BME280;55906;52.278;6.808;2023-02-28T06:50:44;103067.50;;;3.84;64.63
68871;BME280;55906;52.278;6.808;2023-02-28T06:53:10;103069.34;;;3.85;64.57
68871;BME280;55906;52.278;6.808;2023-02-28T06:55:39;103069.78;;;3.90;64.83
68871;BME280;55906;52.278;6.808;2023-02-28T06:58:06;103075.38;;;3.95;64.42
68871;BME280;55906;52.278;6.808;2023-02-28T07:00:40;103081.00;;;3.99;64.23
68871;BME280;55906;52.278;6.808;2023-02-28T07:03:06;103078.94;;;4.05;63.66
68871;BME280;55906;52.278;6.808;2023-02-28T07:05:34;103082.84;;;4.10;64.22
68871;BME280;55906;52.278;6.808;2023-02-28T07:08:01;103085.72;;;4.13;63.91
68871;BME280;55906;52.278;6.808;2023-02-28T07:10:28;103086.66;;;4.24;62.86
68871;BME280;55906;52.278;6.808;2023-02-28T07:12:56;103084.06;;;4.34;63.06
68871;BME280;55906;52.278;6.808;2023-02-28T07:15:23;103091.13;;;4.45;63.01
68871;BME280;55906;52.278;6.808;2023-02-28T07:17:49;103092.94;;;4.57;62.27
68871;BME280;55906;52.278;6.808;2023-02-28T07:20:16;103093.88;;;4.67;61.69
68871;BME280;55906;52.278;6.808;2023-02-28T07:22:43;103081.63;;;4.76;61.50
68871;BME280;55906;52.278;6.808;2023-02-28T07:25:10;103088.53;;;4.86;61.04
68871;BME280;55906;52.278;6.808;2023-02-28T07:27:36;103084.34;;;4.98;60.87
68871;BME280;55906;52.278;6.808;2023-02-28T07:30:06;103087.47;;;5.04;60.08
68871;BME280;55906;52.278;6.808;2023-02-28T07:32:33;103090.56;;;5.10;59.79
68871;BME280;55906;52.278;6.808;2023-02-28T07:35:03;103092.41;;;5.11;59.31
68871;BME280;55906;52.278;6.808;2023-02-28T07:37:30;103097.34;;;5.29;58.16
68871;BME280;55906;52.278;6.808;2023-02-28T07:40:02;103088.03;;;5.85;56.89
68871;BME280;55906;52.278;6.808;2023-02-28T07:42:31;103095.28;;;6.42;55.61
68871;BME280;55906;52.278;6.808;2023-02-28T07:44:58;103091.38;;;6.93;53.49
68871;BME280;55906;52.278;6.808;2023-02-28T07:47:28;103085.63;;;7.32;52.49
68871;BME280;55906;52.278;6.808;2023-02-28T07:49:55;103096.31;;;7.58;53.73
68871;BME280;55906;52.278;6.808;2023-02-28T07:52:22;103086.53;;;7.91;52.09
68871;BME280;55906;52.278;6.808;2023-02-28T07:54:49;103090.69;;;8.12;52.22
68871;BME280;55906;52.278;6.808;2023-02-28T07:57:16;103088.81;;;8.34;52.97
68871;BME280;55906;52.278;6.808;2023-02-28T07:59:43;103094.00;;;8.71;52.63
68871;BME280;55906;52.278;6.808;2023-02-28T08:02:12;103086.00;;;9.08;52.48
68871;BME280;55906;52.278;6.808;2023-02-28T08:04:41;103085.47;;;9.38;51.12
68871;BME280;55906;52.278;6.808;2023-02-28T08:07:08;103088.91;;;9.63;50.51
68871;BME280;55906;52.278;6.808;2023-02-28T08:09:38;103084.13;;;9.84;50.02
68871;BME280;55906;52.278;6.808;2023-02-28T08:12:05;103092.06;;;10.12;49.38
68871;BME280;55906;52.278;6.808;2023-02-28T08:14:32;103087.97;;;10.44;49.31
68871;BME280;55906;52.278;6.808;2023-02-28T08:16:58;103088.66;;;10.69;47.87
68871;BME280;55906;52.278;6.808;2023-02-28T08:19:25;103099.97;;;10.96;47.92
68871;BME280;55906;52.278;6.808;2023-02-28T08:21:53;103095.69;;;11.28;47.31
68871;BME280;55906;52.278;6.808;2023-02-28T08:24:20;103090.22;;;11.39;45.00
68871;BME280;55906;52.278;6.808;2023-02-28T08:26:46;103101.88;;;11.28;41.76
68871;BME280;55906;52.278;6.808;2023-02-28T08:29:13;103094.09;;;11.61;41.59
68871;BME280;55906;52.278;6.808;2023-02-28T08:31:40;103091.81;;;11.96;41.55
68871;BME280;55906;52.278;6.808;2023-02-28T08:34:07;103087.97;;;12.22;38.08
68871;BME280;55906;52.278;6.808;2023-02-28T08:36:35;103094.50;;;12.45;38.92
68871;BME280;55906;52.278;6.808;2023-02-28T08:39:03;103094.16;;;12.39;36.30
68871;BME280;55906;52.278;6.808;2023-02-28T08:41:30;103094.66;;;12.32;37.24
68871;BME280;55906;52.278;6.808;2023-02-28T08:43:56;103097.44;;;12.18;37.44
68871;BME280;55906;52.278;6.808;2023-02-28T08:46:24;103091.97;;;11.99;36.71
68871;BME280;55906;52.278;6.808;2023-02-28T08:48:52;103095.28;;;11.66;35.81
68871;BME280;55906;52.278;6.808;2023-02-28T08:51:19;103093.13;;;11.44;35.96
68871;BME280;55906;52.278;6.808;2023-02-28T08:53:51;103105.88;;;11.07;36.13
68871;BME280;55906;52.278;6.808;2023-02-28T08:56:20;103102.13;;;10.88;36.37
68871;BME280;55906;52.278;6.808;2023-02-28T08:58:48;103097.84;;;10.76;36.06
68871;BME280;55906;52.278;6.808;2023-02-28T09:01:17;103101.75;;;10.82;36.18
68871;BME280;55906;52.278;6.808;2023-02-28T09:03:45;103104.97;;;11.06;35.32
68871;BME280;55906;52.278;6.808;2023-02-28T09:06:13;103099.59;;;11.34;34.64
68871;BME280;55906;52.278;6.808;2023-02-28T09:08:41;103097.88;;;11.79;32.95
68871;BME280;55906;52.278;6.808;2023-02-28T09:11:09;103095.19;;;11.94;33.51
68871;BME280;55906;52.278;6.808;2023-02-28T09:13:37;103106.78;;;12.28;33.48
68871;BME280;55906;52.278;6.808;2023-02-28T09:16:06;103099.13;;;12.65;32.94
68871;BME280;55906;52.278;6.808;2023-02-28T09:18:33;103101.06;;;13.02;33.27
68871;BME280;55906;52.278;6.808;2023-02-28T09:21:02;103093.97;;;13.01;33.23
68871;BME280;55906;52.278;6.808;2023-02-28T09:23:29;103089.84;;;13.06;31.56
68871;BME280;55906;52.278;6.808;2023-02-28T09:25:55;103097.06;;;13.26;32.08
68871;BME280;55906;52.278;6.808;2023-02-28T09:28:22;103087.03;;;13.72;32.13
68871;BME280;55906;52.278;6.808;2023-02-28T09:30:52;103090.91;;;13.79;30.25
68871;BME280;55906;52.278;6.808;2023-02-28T09:33:20;103085.91;;;13.85;30.84
68871;BME280;55906;52.278;6.808;2023-02-28T09:35:48;103086.59;;;13.81;28.72
68871;BME280;55906;52.278;6.808;2023-02-28T09:38:16;103085.56;;;13.97;27.82
68871;BME280;55906;52.278;6.808;2023-02-28T09:40:48;103085.28;;;13.91;28.08
68871;BME280;55906;52.278;6.808;2023-02-28T09:43:16;103084.09;;;14.21;28.61
68871;BME280;55906;52.278;6.808;2023-02-28T09:45:48;103078.78;;;14.58;27.24
68871;BME280;55906;52.278;6.808;2023-02-28T09:48:20;103083.84;;;14.92;28.25
68871;BME280;55906;52.278;6.808;2023-02-28T09:50:50;103088.81;;;14.85;28.81
68871;BME280;55906;52.278;6.808;2023-02-28T09:53:21;103087.78;;;15.02;28.03
68871;BME280;55906;52.278;6.808;2023-02-28T09:55:51;103083.53;;;15.47;28.02
68871;BME280;55906;52.278;6.808;2023-02-28T09:58:23;103085.22;;;15.24;25.06
68871;BME280;55906;52.278;6.808;2023-02-28T10:00:59;103086.25;;;15.90;25.91
68871;BME280;55906;52.278;6.808;2023-02-28T10:03:35;103080.81;;;15.04;24.73
68871;BME280;55906;52.278;6.808;2023-02-28T10:06:09;103078.03;;;16.07;25.72
68871;BME280;55906;52.278;6.808;2023-02-28T10:08:41;103070.44;;;16.63;26.33
68871;BME280;55906;52.278;6.808;2023-02-28T10:11:12;103063.06;;;15.86;23.64
68871;BME280;55906;52.278;6.808;2023-02-28T10:13:50;103061.19;;;16.76;25.34
68871;BME280;55906;52.278;6.808;2023-02-28T10:16:22;103071.28;;;17.10;23.36
68871;BME280;55906;52.278;6.808;2023-02-28T10:18:57;103071.06;;;17.04;23.76
68871;BME280;55906;52.278;6.808;2023-02-28T10:21:28;103070.91;;;17.00;25.10
68871;BME280;55906;52.278;6.808;2023-02-28T10:24:02;103064.88;;;17.31;24.54
68871;BME280;55906;52.278;6.808;2023-02-28T10:26:31;103065.50;;;17.76;24.74
68871;BME280;55906;52.278;6.808;2023-02-28T10:28:58;103065.69;;;17.55;22.70
68871;BME280;55906;52.278;6.808;2023-02-28T10:31:25;103065.81;;;17.85;23.01
68871;BME280;55906;52.278;6.808;2023-02-28T10:33:53;103063.47;;;17.96;23.59
68871;BME280;55906;52.278;6.808;2023-02-28T10:36:21;103062.41;;;18.19;23.66
68871;BME280;55906;52.278;6.808;2023-02-28T10:38:48;103062.88;;;18.34;22.42
68871;BME280;55906;52.278;6.808;2023-02-28T10:41:17;103060.03;;;18.28;22.39
68871;BME280;55906;52.278;6.808;2023-02-28T10:44:12;103066.56;;;17.81;21.17
68871;BME280;55906;52.278;6.808;2023-02-28T10:46:40;103057.66;;;18.37;22.61
68871;BME280;55906;52.278;6.808;2023-02-28T10:49:13;103051.22;;;18.61;21.33
68871;BME280;55906;52.278;6.808;2023-02-28T10:51:41;103049.88;;;18.45;20.63
68871;BME280;55906;52.278;6.808;2023-02-28T10:54:15;103059.91;;;18.85;21.54
68871;BME280;55906;52.278;6.808;2023-02-28T10:56:42;103065.00;;;18.46;20.71
68871;BME280;55906;52.278;6.808;2023-02-28T10:59:27;103060.47;;;17.85;20.66
68871;BME280;55906;52.278;6.808;2023-02-28T11:01:54;103057.84;;;17.86;21.53
68871;BME280;55906;52.278;6.808;2023-02-28T11:04:35;103047.84;;;18.36;21.45
68871;BME280;55906;52.278;6.808;2023-02-28T11:07:06;103037.94;;;18.62;22.09
68871;BME280;55906;52.278;6.808;2023-02-28T11:09:46;103049.38;;;18.90;21.95
68871;BME280;55906;52.278;6.808;2023-02-28T11:12:20;103048.47;;;18.89;21.36
68871;BME280;55906;52.278;6.808;2023-02-28T11:14:50;103049.09;;;17.90;21.15
68871;BME280;55906;52.278;6.808;2023-02-28T11:17:20;103044.53;;;18.15;22.04
68871;BME280;55906;52.278;6.808;2023-02-28T11:19:52;103044.72;;;18.51;21.25
68871;BME280;55906;52.278;6.808;2023-02-28T11:22:21;103038.06;;;19.00;22.08
68871;BME280;55906;52.278;6.808;2023-02-28T11:24:52;103037.31;;;19.40;21.72
68871;BME280;55906;52.278;6.808;2023-02-28T11:27:42;103035.31;;;19.66;19.47
68871;BME280;55906;52.278;6.808;2023-02-28T11:30:25;103039.78;;;19.65;20.26
68871;BME280;55906;52.278;6.808;2023-02-28T11:32:52;103034.38;;;18.95;21.34
68871;BME280;55906;52.278;6.808;2023-02-28T11:35:23;103030.38;;;18.77;19.64
68871;BME280;55906;52.278;6.808;2023-02-28T11:37:52;103017.34;;;19.59;20.01
68871;BME280;55906;52.278;6.808;2023-02-28T11:40:23;103026.16;;;19.55;20.54
68871;BME280;55906;52.278;6.808;2023-02-28T11:43:02;103023.13;;;19.77;20.27
68871;BME280;55906;52.278;6.808;2023-02-28T11:45:43;103012.50;;;19.80;19.48
68871;BME280;55906;52.278;6.808;2023-02-28T11:48:15;103024.72;;;20.09;20.37
68871;BME280;55906;52.278;6.808;2023-02-28T11:50:54;103027.28;;;19.64;19.16
68871;BME280;55906;52.278;6.808;2023-02-28T11:53:36;103018.19;;;19.56;20.04
68871;BME280;55906;52.278;6.808;2023-02-28T11:56:10;103023.66;;;19.62;20.45
68871;BME280;55906;52.278;6.808;2023-02-28T11:58:46;103017.41;;;20.01;19.35
68871;BME280;55906;52.278;6.808;2023-02-28T12:01:27;103003.81;;;19.16;18.95
68871;BME280;55906;52.278;6.808;2023-02-28T12:04:11;102996.31;;;19.02;19.77
68871;BME280;55906;52.278;6.808;2023-02-28T12:06:49;103002.94;;;19.91;20.42
68871;BME280;55906;52.278;6.808;2023-02-28T12:09:40;102996.44;;;19.78;19.18
68871;BME280;55906;52.278;6.808;2023-02-28T12:12:19;102997.16;;;20.12;19.21
68871;BME280;55906;52.278;6.808;2023-02-28T12:17:51;102999.53;;;19.98;19.04
68871;BME280;55906;52.278;6.808;2023-02-28T12:20:29;102988.13;;;20.05;18.48
68871;BME280;55906;52.278;6.808;2023-02-28T12:23:17;102984.00;;;21.16;17.61
68871;BME280;55906;52.278;6.808;2023-02-28T12:25:55;102979.03;;;20.86;17.47
68871;BME280;55906;52.278;6.808;2023-02-28T12:28:30;102972.81;;;21.42;18.60
68871;BME280;55906;52.278;6.808;2023-02-28T12:31:01;102972.69;;;20.81;18.58
68871;BME280;55906;52.278;6.808;2023-02-28T12:33:34;102973.88;;;21.53;19.00
68871;BME280;55906;52.278;6.808;2023-02-28T12:36:05;102967.38;;;22.00;17.59
68871;BME280;55906;52.278;6.808;2023-02-28T12:38:41;102972.19;;;21.59;17.37
68871;BME280;55906;52.278;6.808;2023-02-28T12:41:12;102957.56;;;21.36;18.04
68871;BME280;55906;52.278;6.808;2023-02-28T12:43:42;102961.69;;;21.76;17.81
68871;BME280;55906;52.278;6.808;2023-02-28T12:46:13;102953.81;;;21.23;18.15
68871;BME280;55906;52.278;6.808;2023-02-28T12:48:43;102950.34;;;21.97;17.94
68871;BME280;55906;52.278;6.808;2023-02-28T12:51:12;102956.22;;;21.68;17.62
68871;BME280;55906;52.278;6.808;2023-02-28T12:53:50;102943.59;;;22.25;16.61
68871;BME280;55906;52.278;6.808;2023-02-28T12:56:23;102940.75;;;21.48;16.81
68871;BME280;55906;52.278;6.808;2023-02-28T12:58:56;102922.69;;;22.01;16.62
68871;BME280;55906;52.278;6.808;2023-02-28T13:01:46;102921.09;;;22.12;16.39
68871;BME280;55906;52.278;6.808;2023-02-28T13:04:38;102927.78;;;22.54;15.89
68871;BME280;55906;52.278;6.808;2023-02-28T13:07:23;102925.94;;;22.47;16.30
68871;BME280;55906;52.278;6.808;2023-02-28T13:10:00;102921.97;;;21.45;16.77
68871;BME280;55906;52.278;6.808;2023-02-28T13:12:28;102927.19;;;22.02;16.05
68871;BME280;55906;52.278;6.808;2023-02-28T13:15:07;102912.84;;;21.98;16.47
68871;BME280;55906;52.278;6.808;2023-02-28T13:17:38;102918.88;;;22.56;16.26